createdAt,value
2023-03-12T00:03:04.105Z,91.20
2023-03-12T00:08:07.071Z,91.20
2023-03-12T00:13:09.069Z,91.20
2023-03-12T00:18:10.921Z,91.10
2023-03-12T00:23:12.744Z,91.10
2023-03-12T00:28:14.630Z,91.10
2023-03-12T00:33:16.498Z,91.20
2023-03-12T00:38:18.610Z,91.30
2023-03-12T00:43:20.439Z,91.30
2023-03-12T00:48:22.296Z,91.40
2023-03-12T00:53:24.295Z,91.30
2023-03-12T00:58:26.194Z,91.30
2023-03-12T01:03:28.124Z,91.30
2023-03-12T01:08:30.682Z,91.30
2023-03-12T01:13:32.690Z,91.30
2023-03-12T01:18:34.995Z,91.30
2023-03-12T01:23:38.187Z,91.40
2023-03-12T01:28:40.060Z,91.30
2023-03-12T01:33:42.346Z,91.20
2023-03-12T01:38:44.277Z,91.20
2023-03-12T01:43:46.717Z,91.20
2023-03-12T01:48:54.728Z,91.20
2023-03-12T01:54:00.797Z,91.20
2023-03-12T01:59:17.072Z,91.20
2023-03-12T02:04:22.267Z,91.30
2023-03-12T02:09:25.887Z,91.30
2023-03-12T02:14:28.310Z,91.30
2023-03-12T02:20:01.400Z,91.20
2023-03-12T02:25:28.335Z,91.30
2023-03-12T02:30:31.479Z,91.40
2023-03-12T02:35:33.864Z,91.30
2023-03-12T02:40:42.216Z,91.30
2023-03-12T02:45:44.393Z,91.30
2023-03-12T02:50:46.284Z,91.20
2023-03-12T02:55:48.599Z,91.20
2023-03-12T03:00:50.784Z,91.50
2023-03-12T03:05:53.154Z,91.20
2023-03-12T03:10:55.325Z,91.50
2023-03-12T03:15:59.726Z,91.30
2023-03-12T03:21:05.150Z,91.30
2023-03-12T03:26:08.144Z,91.40
2023-03-12T03:31:10.153Z,91.40
2023-03-12T03:36:15.400Z,91.40
2023-03-12T03:41:33.017Z,91.40
2023-03-12T03:46:38.110Z,91.30
2023-03-12T03:51:43.433Z,91.30
2023-03-12T03:56:48.844Z,91.30
2023-03-12T04:01:51.124Z,91.30
2023-03-12T04:06:53.221Z,91.40
2023-03-12T04:11:55.181Z,91.20
2023-03-12T04:16:57.533Z,91.30
2023-03-12T04:21:59.559Z,91.40
2023-03-12T04:27:01.737Z,91.50
2023-03-12T04:32:04.203Z,91.40
2023-03-12T04:37:06.472Z,91.40
2023-03-12T04:42:09.513Z,91.50
2023-03-12T04:47:12.266Z,91.50
2023-03-12T04:52:14.398Z,91.40
2023-03-12T04:57:16.570Z,91.50
2023-03-12T05:02:20.013Z,91.60
2023-03-12T05:07:22.334Z,91.70
2023-03-12T05:12:24.301Z,91.70
2023-03-12T05:17:26.490Z,91.80
2023-03-12T05:22:28.695Z,91.80
2023-03-12T05:27:31.952Z,91.80
2023-03-12T05:32:34.655Z,91.90
2023-03-12T05:37:36.818Z,91.90
2023-03-12T05:42:39.239Z,91.90
2023-03-12T05:47:43.289Z,91.80
2023-03-12T05:52:45.261Z,91.80
2023-03-12T05:57:47.548Z,91.80
2023-03-12T06:02:49.703Z,91.80
2023-03-12T06:07:51.941Z,91.90
2023-03-12T06:12:54.472Z,91.90
2023-03-12T06:17:56.653Z,91.90
2023-03-12T06:22:58.638Z,92.00
2023-03-12T06:28:00.996Z,92.10
2023-03-12T06:33:04.759Z,92.10
2023-03-12T06:38:06.730Z,92.20
2023-03-12T06:43:12.733Z,92.30
2023-03-12T06:48:14.636Z,92.30
2023-03-12T06:53:16.698Z,92.30
2023-03-12T06:58:19.481Z,92.70
2023-03-12T07:03:21.949Z,92.40
2023-03-12T07:08:25.228Z,92.40
2023-03-12T07:13:27.199Z,92.40
2023-03-12T07:18:29.131Z,92.40
2023-03-12T07:23:31.238Z,92.50
2023-03-12T07:28:33.321Z,92.60
2023-03-12T07:33:35.737Z,92.60
2023-03-12T07:38:37.797Z,92.70
2023-03-12T07:43:39.768Z,92.80
2023-03-12T07:48:44.240Z,92.80
2023-03-12T07:53:46.450Z,92.40
2023-03-12T07:58:48.849Z,92.50
2023-03-12T08:03:51.206Z,92.60
2023-03-12T08:08:53.299Z,92.50
2023-03-12T08:13:55.380Z,92.40
2023-03-12T08:18:57.430Z,92.50
2023-03-12T08:23:59.477Z,92.60
2023-03-12T08:29:01.703Z,92.70
2023-03-12T08:34:03.564Z,92.80
2023-03-12T08:39:05.493Z,92.90
2023-03-12T08:44:07.516Z,92.90
2023-03-12T08:49:09.306Z,93.00
2023-03-12T08:54:11.368Z,93.10
2023-03-12T08:59:13.869Z,93.10
2023-03-12T09:04:16.537Z,93.10
2023-03-12T09:09:18.490Z,93.20
2023-03-12T09:15:01.078Z,93.20
2023-03-12T09:19:42.214Z,93.20
2023-03-12T09:24:44.078Z,93.30
2023-03-12T09:29:59.583Z,93.30
2023-03-12T09:35:02.357Z,93.50
2023-03-12T09:40:10.527Z,93.50
2023-03-12T09:45:34.072Z,93.60
2023-03-12T09:50:43.577Z,93.70
2023-03-12T09:55:49.080Z,93.80
2023-03-12T10:00:54.994Z,93.90
2023-03-12T10:06:04.102Z,94.00
2023-03-12T10:11:14.875Z,94.10
2023-03-12T10:16:19.744Z,94.30
2023-03-12T10:21:54.268Z,94.30
2023-03-12T10:26:58.377Z,94.40
2023-03-12T10:32:18.450Z,94.50
2023-03-12T10:38:15.692Z,94.50
2023-03-12T10:43:17.570Z,94.60
2023-03-12T10:48:22.197Z,94.80
2023-03-12T10:53:29.966Z,94.80
2023-03-12T10:58:52.713Z,94.80
2023-03-12T11:04:30.347Z,95.00
2023-03-12T11:09:32.565Z,94.90
2023-03-12T11:14:37.976Z,94.80
2023-03-12T11:19:40.479Z,94.90
2023-03-12T11:25:03.142Z,95.20
2023-03-12T11:30:07.425Z,95.00
2023-03-12T11:35:33.216Z,95.00
2023-03-12T11:40:46.996Z,95.10
2023-03-12T11:46:07.694Z,95.10
2023-03-12T11:51:41.268Z,95.20
2023-03-12T11:56:53.370Z,95.40
2023-03-12T12:02:13.493Z,95.40
2023-03-12T12:07:52.694Z,95.60
2023-03-12T12:13:31.770Z,95.70
2023-03-12T12:18:47.804Z,95.70
2023-03-12T12:23:58.227Z,95.90
2023-03-12T12:29:23.004Z,95.90
2023-03-12T12:34:27.592Z,96.00
2023-03-12T12:39:43.115Z,96.00
2023-03-12T12:44:52.026Z,96.40
2023-03-12T12:49:58.153Z,96.30
2023-03-12T12:55:02.920Z,96.40
2023-03-12T13:00:34.476Z,96.60
2023-03-12T13:05:36.250Z,96.60
2023-03-12T13:10:48.536Z,96.60
2023-03-12T13:16:40.147Z,96.70
2023-03-12T13:22:05.575Z,96.60
2023-03-12T13:27:30.500Z,96.40
2023-03-12T13:32:35.141Z,96.30
2023-03-12T13:37:46.207Z,96.40
2023-03-12T13:43:05.394Z,96.70
2023-03-12T13:48:15.633Z,96.80
2023-03-12T13:53:23.140Z,96.70
2023-03-12T13:58:27.498Z,96.60
2023-03-12T14:03:53.635Z,96.50
2023-03-12T14:09:10.672Z,96.40
2023-03-12T14:14:41.537Z,96.30
2023-03-12T14:19:48.843Z,96.20
2023-03-12T14:24:55.931Z,96.20
2023-03-12T14:30:19.897Z,96.40
2023-03-12T14:35:22.827Z,96.30
2023-03-12T14:40:49.038Z,96.30
2023-03-12T14:45:56.094Z,96.50
2023-03-12T14:50:59.803Z,96.70
2023-03-12T14:56:08.170Z,96.70
2023-03-12T15:01:14.601Z,96.80
2023-03-12T15:06:32.733Z,96.80
2023-03-12T15:11:37.249Z,96.60
2023-03-12T15:16:39.534Z,96.40
2023-03-12T15:21:41.567Z,96.30
2023-03-12T15:26:43.955Z,96.10
2023-03-12T15:31:50.059Z,96.10
2023-03-12T15:36:54.820Z,96.20
2023-03-12T15:42:01.698Z,96.10
2023-03-12T15:47:09.707Z,96.00
2023-03-12T15:52:24.610Z,96.10
2023-03-12T15:57:39.687Z,96.10
2023-03-12T16:03:08.768Z,96.00
2023-03-12T16:08:29.580Z,96.10
2023-03-12T16:13:37.398Z,96.10
2023-03-12T16:18:48.483Z,96.00
2023-03-12T16:23:57.228Z,96.00
2023-03-12T16:29:01.274Z,95.90
2023-03-12T16:34:28.993Z,95.90
2023-03-12T16:39:33.357Z,95.80
2023-03-12T16:44:39.291Z,95.70
2023-03-12T16:49:46.587Z,95.80
2023-03-12T16:54:49.996Z,96.00
2023-03-12T17:00:06.267Z,95.90
2023-03-12T17:05:11.248Z,95.70
2023-03-12T17:10:18.063Z,95.90
2023-03-12T17:15:34.410Z,96.00
2023-03-12T17:20:43.503Z,96.00
2023-03-12T17:25:46.490Z,96.00
2023-03-12T17:30:55.044Z,96.00
2023-03-12T17:36:08.799Z,95.90
2023-03-12T17:41:25.382Z,96.10
2023-03-12T17:46:56.502Z,96.00
2023-03-12T17:52:07.094Z,96.10
2023-03-12T17:57:09.256Z,96.00
2023-03-12T18:02:14.426Z,95.90
2023-03-12T18:07:16.421Z,96.00
2023-03-12T18:12:18.345Z,96.20
2023-03-12T18:17:20.373Z,96.00
2023-03-12T18:22:23.174Z,96.00
2023-03-12T18:27:25.070Z,96.10
2023-03-12T18:32:27.198Z,96.00
2023-03-12T18:37:29.344Z,96.00
2023-03-12T18:42:31.712Z,96.00
2023-03-12T18:47:35.038Z,96.00
2023-03-12T18:52:36.970Z,95.90
2023-03-12T18:57:38.943Z,95.90
2023-03-12T19:02:42.167Z,95.80
2023-03-12T19:07:44.548Z,95.80
2023-03-12T19:12:52.722Z,95.80
2023-03-12T19:17:55.971Z,95.70
2023-03-12T19:22:57.990Z,95.70
2023-03-12T19:27:59.973Z,95.60
2023-03-12T19:33:02.174Z,95.60
2023-03-12T19:38:04.222Z,95.60
2023-03-12T19:43:07.210Z,95.60
2023-03-12T19:48:09.151Z,95.60
2023-03-12T19:53:11.733Z,95.40
2023-03-12T19:58:15.835Z,95.40
2023-03-12T20:03:17.866Z,95.40
2023-03-12T20:08:21.051Z,95.40
2023-03-12T20:13:23.109Z,95.40
2023-03-12T20:18:25.077Z,95.30
2023-03-12T20:23:26.970Z,95.40
2023-03-12T20:28:28.810Z,95.40
2023-03-12T20:33:30.687Z,95.40
2023-03-12T20:38:32.755Z,95.40
2023-03-12T20:43:34.821Z,95.40
2023-03-12T20:48:36.883Z,95.40
2023-03-12T20:53:38.838Z,95.30
2023-03-12T20:58:40.751Z,95.30
2023-03-12T21:03:42.641Z,95.20
2023-03-12T21:08:44.760Z,95.30
2023-03-12T21:13:47.024Z,95.20
2023-03-12T21:18:49.432Z,95.00
2023-03-12T21:23:51.858Z,95.00
2023-03-12T21:28:54.539Z,95.00
2023-03-12T21:34:00.901Z,95.00
2023-03-12T21:39:03.662Z,95.00
2023-03-12T21:44:06.202Z,95.00
2023-03-12T21:49:08.813Z,95.10
2023-03-12T21:54:11.474Z,95.20
2023-03-12T21:59:13.499Z,95.10
2023-03-12T22:04:15.382Z,95.20
2023-03-12T22:09:18.093Z,95.30
2023-03-12T22:14:19.972Z,95.30
2023-03-12T22:19:21.934Z,95.30
2023-03-12T22:24:23.759Z,95.30
2023-03-12T22:29:25.520Z,95.30
2023-03-12T22:34:29.496Z,95.20
2023-03-12T22:39:31.442Z,95.20
2023-03-12T22:44:33.326Z,95.20
2023-03-12T22:49:35.256Z,95.20
2023-03-12T22:54:37.069Z,95.20
2023-03-12T22:59:38.908Z,95.50
2023-03-12T23:04:40.739Z,95.30
2023-03-12T23:09:42.800Z,95.30
2023-03-12T23:14:44.685Z,95.30
2023-03-12T23:19:46.520Z,95.20
2023-03-12T23:24:50.487Z,95.30
2023-03-12T23:29:52.318Z,95.20
2023-03-12T23:34:54.103Z,95.20
2023-03-12T23:39:56.077Z,95.20
2023-03-12T23:44:57.907Z,95.20
2023-03-12T23:49:59.709Z,95.20
2023-03-12T23:55:01.579Z,95.30
